sensor_id;sensor_type;location;lat;lon;timestamp;P1;durP1;ratioP1;P2;durP2;ratioP2
14377;SDS011;7272;53.668;9.578;2023-04-28T00:01:06;6.20;;;5.77;;
14377;SDS011;7272;53.668;9.578;2023-04-28T00:04:07;6.97;;;6.27;;
14377;SDS011;7272;53.668;9.578;2023-04-28T00:07:08;7.47;;;6.77;;
14377;SDS011;7272;53.668;9.578;2023-04-28T00:10:10;6.47;;;5.83;;
14377;SDS011;7272;53.668;9.578;2023-04-28T00:13:12;7.40;;;6.70;;
14377;SDS011;7272;53.668;9.578;2023-04-28T00:16:13;6.57;;;6.00;;
14377;SDS011;7272;53.668;9.578;2023-04-28T00:19:14;8.10;;;7.40;;
14377;SDS011;7272;53.668;9.578;2023-04-28T00:22:15;8.57;;;7.57;;
14377;SDS011;7272;53.668;9.578;2023-04-28T00:25:17;7.07;;;6.33;;
14377;SDS011;7272;53.668;9.578;2023-04-28T00:28:18;9.03;;;8.17;;
14377;SDS011;7272;53.668;9.578;2023-04-28T00:31:20;8.70;;;7.90;;
14377;SDS011;7272;53.668;9.578;2023-04-28T00:34:21;7.90;;;7.07;;
14377;SDS011;7272;53.668;9.578;2023-04-28T00:37:22;8.23;;;7.43;;
14377;SDS011;7272;53.668;9.578;2023-04-28T00:40:29;9.67;;;8.70;;
14377;SDS011;7272;53.668;9.578;2023-04-28T00:43:42;9.53;;;8.73;;
14377;SDS011;7272;53.668;9.578;2023-04-28T00:46:44;9.03;;;8.23;;
14377;SDS011;7272;53.668;9.578;2023-04-28T00:49:46;8.77;;;7.87;;
14377;SDS011;7272;53.668;9.578;2023-04-28T00:52:48;7.17;;;6.57;;
14377;SDS011;7272;53.668;9.578;2023-04-28T00:55:51;8.70;;;7.80;;
14377;SDS011;7272;53.668;9.578;2023-04-28T00:58:56;10.13;;;9.23;;
14377;SDS011;7272;53.668;9.578;2023-04-28T01:01:57;9.10;;;8.30;;
14377;SDS011;7272;53.668;9.578;2023-04-28T01:05:00;8.80;;;7.90;;
14377;SDS011;7272;53.668;9.578;2023-04-28T01:08:02;7.77;;;7.17;;
14377;SDS011;7272;53.668;9.578;2023-04-28T01:11:05;8.30;;;7.50;;
14377;SDS011;7272;53.668;9.578;2023-04-28T01:14:26;8.50;;;7.70;;
14377;SDS011;7272;53.668;9.578;2023-04-28T01:17:27;9.63;;;8.73;;
14377;SDS011;7272;53.668;9.578;2023-04-28T01:20:29;7.93;;;7.23;;
14377;SDS011;7272;53.668;9.578;2023-04-28T01:23:31;7.60;;;6.90;;
14377;SDS011;7272;53.668;9.578;2023-04-28T01:26:33;8.40;;;7.37;;
14377;SDS011;7272;53.668;9.578;2023-04-28T01:29:35;7.93;;;7.23;;
14377;SDS011;7272;53.668;9.578;2023-04-28T01:32:36;11.25;;;10.35;;
14377;SDS011;7272;53.668;9.578;2023-04-28T01:35:37;12.07;;;11.07;;
14377;SDS011;7272;53.668;9.578;2023-04-28T01:38:39;10.57;;;9.57;;
14377;SDS011;7272;53.668;9.578;2023-04-28T01:41:41;9.03;;;8.23;;
14377;SDS011;7272;53.668;9.578;2023-04-28T01:44:42;12.43;;;9.37;;
14377;SDS011;7272;53.668;9.578;2023-04-28T01:47:44;8.30;;;7.53;;
14377;SDS011;7272;53.668;9.578;2023-04-28T01:50:46;9.63;;;8.63;;
14377;SDS011;7272;53.668;9.578;2023-04-28T01:53:47;10.87;;;9.77;;
14377;SDS011;7272;53.668;9.578;2023-04-28T01:56:49;11.70;;;10.60;;
14377;SDS011;7272;53.668;9.578;2023-04-28T01:59:52;9.93;;;9.00;;
14377;SDS011;7272;53.668;9.578;2023-04-28T02:02:53;8.60;;;7.90;;
14377;SDS011;7272;53.668;9.578;2023-04-28T02:05:55;8.20;;;7.40;;
14377;SDS011;7272;53.668;9.578;2023-04-28T02:08:56;9.87;;;8.97;;
14377;SDS011;7272;53.668;9.578;2023-04-28T02:11:58;9.87;;;8.70;;
14377;SDS011;7272;53.668;9.578;2023-04-28T02:15:01;9.10;;;8.20;;
14377;SDS011;7272;53.668;9.578;2023-04-28T02:18:03;9.67;;;8.77;;
14377;SDS011;7272;53.668;9.578;2023-04-28T02:21:07;9.47;;;8.47;;
14377;SDS011;7272;53.668;9.578;2023-04-28T02:24:10;11.80;;;10.03;;
14377;SDS011;7272;53.668;9.578;2023-04-28T02:27:12;9.97;;;8.97;;
14377;SDS011;7272;53.668;9.578;2023-04-28T02:30:13;9.60;;;8.70;;
14377;SDS011;7272;53.668;9.578;2023-04-28T02:33:14;11.40;;;9.60;;
14377;SDS011;7272;53.668;9.578;2023-04-28T02:36:16;11.93;;;10.60;;
14377;SDS011;7272;53.668;9.578;2023-04-28T02:39:17;11.10;;;10.10;;
14377;SDS011;7272;53.668;9.578;2023-04-28T02:42:21;10.67;;;9.57;;
14377;SDS011;7272;53.668;9.578;2023-04-28T02:45:23;11.73;;;10.53;;
14377;SDS011;7272;53.668;9.578;2023-04-28T02:48:24;12.30;;;11.20;;
14377;SDS011;7272;53.668;9.578;2023-04-28T02:51:26;12.27;;;11.00;;
14377;SDS011;7272;53.668;9.578;2023-04-28T02:54:28;11.40;;;10.17;;
14377;SDS011;7272;53.668;9.578;2023-04-28T02:57:31;11.53;;;10.50;;
14377;SDS011;7272;53.668;9.578;2023-04-28T03:00:32;11.40;;;10.40;;
14377;SDS011;7272;53.668;9.578;2023-04-28T03:03:34;11.87;;;10.60;;
14377;SDS011;7272;53.668;9.578;2023-04-28T03:06:35;10.93;;;9.83;;
14377;SDS011;7272;53.668;9.578;2023-04-28T03:09:36;9.30;;;8.37;;
14377;SDS011;7272;53.668;9.578;2023-04-28T03:12:38;10.13;;;9.13;;
14377;SDS011;7272;53.668;9.578;2023-04-28T03:15:40;9.30;;;8.33;;
14377;SDS011;7272;53.668;9.578;2023-04-28T03:18:42;11.30;;;9.57;;
14377;SDS011;7272;53.668;9.578;2023-04-28T03:21:43;11.37;;;10.30;;
14377;SDS011;7272;53.668;9.578;2023-04-28T03:24:47;9.93;;;8.73;;
14377;SDS011;7272;53.668;9.578;2023-04-28T03:27:50;9.93;;;8.93;;
14377;SDS011;7272;53.668;9.578;2023-04-28T03:30:52;11.67;;;10.23;;
14377;SDS011;7272;53.668;9.578;2023-04-28T03:33:53;13.37;;;10.10;;
14377;SDS011;7272;53.668;9.578;2023-04-28T03:36:54;13.17;;;11.83;;
14377;SDS011;7272;53.668;9.578;2023-04-28T03:40:01;10.80;;;9.77;;
14377;SDS011;7272;53.668;9.578;2023-04-28T03:43:10;10.80;;;9.37;;
14377;SDS011;7272;53.668;9.578;2023-04-28T03:46:16;10.90;;;9.83;;
14377;SDS011;7272;53.668;9.578;2023-04-28T03:49:18;12.23;;;10.10;;
14377;SDS011;7272;53.668;9.578;2023-04-28T03:52:20;10.20;;;9.30;;
14377;SDS011;7272;53.668;9.578;2023-04-28T03:55:21;12.90;;;10.83;;
14377;SDS011;7272;53.668;9.578;2023-04-28T03:58:25;10.50;;;9.50;;
14377;SDS011;7272;53.668;9.578;2023-04-28T04:01:27;11.77;;;10.57;;
14377;SDS011;7272;53.668;9.578;2023-04-28T04:04:29;11.30;;;10.10;;
14377;SDS011;7272;53.668;9.578;2023-04-28T04:07:30;10.77;;;9.03;;
14377;SDS011;7272;53.668;9.578;2023-04-28T04:10:32;11.63;;;10.47;;
14377;SDS011;7272;53.668;9.578;2023-04-28T04:13:34;11.13;;;9.90;;
14377;SDS011;7272;53.668;9.578;2023-04-28T04:16:39;11.57;;;10.47;;
14377;SDS011;7272;53.668;9.578;2023-04-28T04:19:40;11.63;;;9.77;;
14377;SDS011;7272;53.668;9.578;2023-04-28T04:22:44;11.93;;;10.73;;
14377;SDS011;7272;53.668;9.578;2023-04-28T04:25:46;10.17;;;9.00;;
14377;SDS011;7272;53.668;9.578;2023-04-28T04:28:48;12.30;;;10.77;;
14377;SDS011;7272;53.668;9.578;2023-04-28T04:31:49;12.37;;;11.13;;
14377;SDS011;7272;53.668;9.578;2023-04-28T04:34:50;12.03;;;10.80;;
14377;SDS011;7272;53.668;9.578;2023-04-28T04:37:52;11.03;;;9.50;;
14377;SDS011;7272;53.668;9.578;2023-04-28T04:40:54;10.53;;;9.37;;
14377;SDS011;7272;53.668;9.578;2023-04-28T04:43:56;12.07;;;10.70;;
14377;SDS011;7272;53.668;9.578;2023-04-28T04:47:02;10.13;;;9.07;;
14377;SDS011;7272;53.668;9.578;2023-04-28T04:50:06;11.50;;;10.27;;
14377;SDS011;7272;53.668;9.578;2023-04-28T04:53:08;12.33;;;10.87;;
14377;SDS011;7272;53.668;9.578;2023-04-28T04:56:09;13.23;;;10.73;;
14377;SDS011;7272;53.668;9.578;2023-04-28T04:59:11;12.33;;;11.03;;
14377;SDS011;7272;53.668;9.578;2023-04-28T05:02:21;13.17;;;11.83;;
14377;SDS011;7272;53.668;9.578;2023-04-28T05:05:22;11.13;;;9.97;;
14377;SDS011;7272;53.668;9.578;2023-04-28T05:08:36;11.03;;;10.00;;
14377;SDS011;7272;53.668;9.578;2023-04-28T05:11:38;9.70;;;8.67;;
14377;SDS011;7272;53.668;9.578;2023-04-28T05:14:40;10.20;;;9.23;;
14377;SDS011;7272;53.668;9.578;2023-04-28T05:17:42;10.53;;;9.17;;
14377;SDS011;7272;53.668;9.578;2023-04-28T05:20:44;11.00;;;9.90;;
14377;SDS011;7272;53.668;9.578;2023-04-28T05:23:49;9.47;;;8.47;;
14377;SDS011;7272;53.668;9.578;2023-04-28T05:26:51;9.90;;;8.90;;
14377;SDS011;7272;53.668;9.578;2023-04-28T05:29:54;10.67;;;9.57;;
14377;SDS011;7272;53.668;9.578;2023-04-28T05:32:55;10.23;;;9.20;;
14377;SDS011;7272;53.668;9.578;2023-04-28T05:35:56;11.13;;;9.40;;
14377;SDS011;7272;53.668;9.578;2023-04-28T05:38:58;9.70;;;8.80;;
14377;SDS011;7272;53.668;9.578;2023-04-28T05:42:00;9.97;;;9.07;;
14377;SDS011;7272;53.668;9.578;2023-04-28T05:45:04;9.60;;;8.70;;
14377;SDS011;7272;53.668;9.578;2023-04-28T05:48:06;10.53;;;9.43;;
14377;SDS011;7272;53.668;9.578;2023-04-28T05:51:07;9.77;;;8.57;;
14377;SDS011;7272;53.668;9.578;2023-04-28T05:54:09;10.07;;;9.07;;
14377;SDS011;7272;53.668;9.578;2023-04-28T05:57:16;9.97;;;8.97;;
14377;SDS011;7272;53.668;9.578;2023-04-28T06:00:18;9.40;;;8.47;;
14377;SDS011;7272;53.668;9.578;2023-04-28T06:03:21;9.40;;;8.20;;
14377;SDS011;7272;53.668;9.578;2023-04-28T06:06:22;9.20;;;7.73;;
14377;SDS011;7272;53.668;9.578;2023-04-28T06:09:24;7.97;;;7.27;;
14377;SDS011;7272;53.668;9.578;2023-04-28T06:12:26;8.17;;;7.47;;
14377;SDS011;7272;53.668;9.578;2023-04-28T06:15:28;8.07;;;7.30;;
14377;SDS011;7272;53.668;9.578;2023-04-28T06:18:30;7.87;;;7.07;;
14377;SDS011;7272;53.668;9.578;2023-04-28T06:21:34;7.67;;;6.97;;
14377;SDS011;7272;53.668;9.578;2023-04-28T06:24:36;8.93;;;7.73;;
14377;SDS011;7272;53.668;9.578;2023-04-28T06:27:41;8.57;;;7.70;;
14377;SDS011;7272;53.668;9.578;2023-04-28T06:30:43;7.53;;;6.70;;
14377;SDS011;7272;53.668;9.578;2023-04-28T06:33:44;7.23;;;6.63;;
14377;SDS011;7272;53.668;9.578;2023-04-28T06:36:46;8.23;;;7.53;;
14377;SDS011;7272;53.668;9.578;2023-04-28T06:39:47;7.60;;;6.90;;
14377;SDS011;7272;53.668;9.578;2023-04-28T06:42:50;7.60;;;6.80;;
14377;SDS011;7272;53.668;9.578;2023-04-28T06:45:57;8.90;;;6.30;;
14377;SDS011;7272;53.668;9.578;2023-04-28T06:48:59;8.10;;;6.97;;
14377;SDS011;7272;53.668;9.578;2023-04-28T06:52:00;7.07;;;6.17;;
14377;SDS011;7272;53.668;9.578;2023-04-28T06:55:04;7.67;;;5.97;;
14377;SDS011;7272;53.668;9.578;2023-04-28T06:58:06;7.00;;;5.73;;
14377;SDS011;7272;53.668;9.578;2023-04-28T07:01:08;5.43;;;5.03;;
14377;SDS011;7272;53.668;9.578;2023-04-28T07:04:09;6.13;;;5.23;;
14377;SDS011;7272;53.668;9.578;2023-04-28T07:07:11;5.77;;;5.23;;
14377;SDS011;7272;53.668;9.578;2023-04-28T07:10:12;6.07;;;4.97;;
14377;SDS011;7272;53.668;9.578;2023-04-28T07:13:14;6.23;;;4.90;;
14377;SDS011;7272;53.668;9.578;2023-04-28T07:16:16;5.53;;;4.97;;
14377;SDS011;7272;53.668;9.578;2023-04-28T07:19:18;4.57;;;4.10;;
14377;SDS011;7272;53.668;9.578;2023-04-28T07:22:19;4.73;;;4.00;;
14377;SDS011;7272;53.668;9.578;2023-04-28T07:25:21;4.80;;;4.00;;
14377;SDS011;7272;53.668;9.578;2023-04-28T07:28:22;4.90;;;4.00;;
14377;SDS011;7272;53.668;9.578;2023-04-28T07:31:24;4.13;;;3.73;;
14377;SDS011;7272;53.668;9.578;2023-04-28T07:34:25;4.50;;;4.10;;
14377;SDS011;7272;53.668;9.578;2023-04-28T07:37:27;4.60;;;4.10;;
14377;SDS011;7272;53.668;9.578;2023-04-28T07:40:28;5.03;;;3.60;;
14377;SDS011;7272;53.668;9.578;2023-04-28T07:43:30;5.60;;;3.63;;
14377;SDS011;7272;53.668;9.578;2023-04-28T07:46:32;5.03;;;3.40;;
14377;SDS011;7272;53.668;9.578;2023-04-28T07:49:33;5.53;;;3.37;;
14377;SDS011;7272;53.668;9.578;2023-04-28T07:52:34;3.80;;;3.37;;
14377;SDS011;7272;53.668;9.578;2023-04-28T07:55:36;3.70;;;3.40;;
14377;SDS011;7272;53.668;9.578;2023-04-28T07:58:37;4.27;;;3.10;;
14377;SDS011;7272;53.668;9.578;2023-04-28T08:01:39;4.87;;;3.30;;
14377;SDS011;7272;53.668;9.578;2023-04-28T08:04:41;4.43;;;2.90;;
14377;SDS011;7272;53.668;9.578;2023-04-28T08:07:43;3.67;;;3.33;;
14377;SDS011;7272;53.668;9.578;2023-04-28T08:10:44;5.70;;;3.37;;
14377;SDS011;7272;53.668;9.578;2023-04-28T08:13:45;4.43;;;3.43;;
14377;SDS011;7272;53.668;9.578;2023-04-28T08:16:47;3.87;;;3.57;;
14377;SDS011;7272;53.668;9.578;2023-04-28T08:19:48;3.73;;;3.43;;
14377;SDS011;7272;53.668;9.578;2023-04-28T08:22:50;3.17;;;2.87;;
14377;SDS011;7272;53.668;9.578;2023-04-28T08:25:51;3.37;;;3.07;;
14377;SDS011;7272;53.668;9.578;2023-04-28T08:28:52;4.10;;;3.47;;
14377;SDS011;7272;53.668;9.578;2023-04-28T08:31:54;4.53;;;3.50;;
14377;SDS011;7272;53.668;9.578;2023-04-28T08:34:56;5.47;;;3.77;;
14377;SDS011;7272;53.668;9.578;2023-04-28T08:37:57;4.03;;;3.43;;
14377;SDS011;7272;53.668;9.578;2023-04-28T08:40:58;3.80;;;3.30;;
14377;SDS011;7272;53.668;9.578;2023-04-28T08:44:00;4.47;;;4.07;;
14377;SDS011;7272;53.668;9.578;2023-04-28T08:47:02;5.93;;;3.40;;
14377;SDS011;7272;53.668;9.578;2023-04-28T08:50:05;3.67;;;3.20;;
14377;SDS011;7272;53.668;9.578;2023-04-28T08:53:08;5.10;;;3.77;;
14377;SDS011;7272;53.668;9.578;2023-04-28T08:56:11;4.77;;;4.20;;
14377;SDS011;7272;53.668;9.578;2023-04-28T08:59:16;4.37;;;3.77;;
14377;SDS011;7272;53.668;9.578;2023-04-28T09:02:19;4.13;;;3.50;;
14377;SDS011;7272;53.668;9.578;2023-04-28T09:05:20;3.80;;;3.50;;
14377;SDS011;7272;53.668;9.578;2023-04-28T09:08:21;6.53;;;3.93;;
14377;SDS011;7272;53.668;9.578;2023-04-28T09:11:22;5.27;;;4.13;;
14377;SDS011;7272;53.668;9.578;2023-04-28T09:14:24;7.60;;;3.90;;
14377;SDS011;7272;53.668;9.578;2023-04-28T09:17:26;6.07;;;4.60;;
14377;SDS011;7272;53.668;9.578;2023-04-28T09:20:29;5.33;;;3.83;;
14377;SDS011;7272;53.668;9.578;2023-04-28T09:23:31;4.40;;;4.00;;
14377;SDS011;7272;53.668;9.578;2023-04-28T09:26:45;5.13;;;4.20;;
14377;SDS011;7272;53.668;9.578;2023-04-28T09:29:51;6.00;;;3.60;;
14377;SDS011;7272;53.668;9.578;2023-04-28T09:33:01;4.33;;;3.93;;
14377;SDS011;7272;53.668;9.578;2023-04-28T09:36:04;4.60;;;3.37;;
14377;SDS011;7272;53.668;9.578;2023-04-28T09:39:06;5.50;;;4.07;;
14377;SDS011;7272;53.668;9.578;2023-04-28T09:42:08;4.60;;;4.17;;
14377;SDS011;7272;53.668;9.578;2023-04-28T09:45:10;5.27;;;4.17;;
14377;SDS011;7272;53.668;9.578;2023-04-28T09:48:13;4.57;;;3.63;;
14377;SDS011;7272;53.668;9.578;2023-04-28T09:51:19;4.70;;;4.23;;
14377;SDS011;7272;53.668;9.578;2023-04-28T09:54:20;4.23;;;3.70;;
14377;SDS011;7272;53.668;9.578;2023-04-28T09:57:23;4.40;;;4.00;;
14377;SDS011;7272;53.668;9.578;2023-04-28T10:00:24;4.87;;;4.10;;
14377;SDS011;7272;53.668;9.578;2023-04-28T10:03:27;5.80;;;4.20;;
14377;SDS011;7272;53.668;9.578;2023-04-28T10:06:29;5.30;;;4.10;;
14377;SDS011;7272;53.668;9.578;2023-04-28T10:09:33;6.63;;;4.27;;
14377;SDS011;7272;53.668;9.578;2023-04-28T10:12:34;4.10;;;3.70;;
14377;SDS011;7272;53.668;9.578;2023-04-28T10:15:37;5.17;;;4.20;;
14377;SDS011;7272;53.668;9.578;2023-04-28T10:18:40;6.00;;;4.07;;
14377;SDS011;7272;53.668;9.578;2023-04-28T10:21:43;6.03;;;3.90;;
14377;SDS011;7272;53.668;9.578;2023-04-28T10:25:01;5.23;;;3.80;;
14377;SDS011;7272;53.668;9.578;2023-04-28T10:28:18;4.37;;;3.97;;
14377;SDS011;7272;53.668;9.578;2023-04-28T10:31:20;6.00;;;4.10;;
14377;SDS011;7272;53.668;9.578;2023-04-28T10:34:22;7.73;;;3.77;;
14377;SDS011;7272;53.668;9.578;2023-04-28T10:41:03;5.18;;;4.72;;
14377;SDS011;7272;53.668;9.578;2023-04-28T10:51:22;4.63;;;3.97;;
14377;SDS011;7272;53.668;9.578;2023-04-28T10:54:32;4.93;;;4.47;;
14377;SDS011;7272;53.668;9.578;2023-04-28T10:57:33;6.07;;;4.17;;
14377;SDS011;7272;53.668;9.578;2023-04-28T11:00:35;4.67;;;4.13;;
14377;SDS011;7272;53.668;9.578;2023-04-28T11:03:42;4.03;;;3.73;;
14377;SDS011;7272;53.668;9.578;2023-04-28T11:10:10;5.00;;;4.40;;
14377;SDS011;7272;53.668;9.578;2023-04-28T11:13:24;4.90;;;4.03;;
14377;SDS011;7272;53.668;9.578;2023-04-28T11:16:26;5.13;;;4.27;;
14377;SDS011;7272;53.668;9.578;2023-04-28T11:19:28;5.50;;;4.47;;
14377;SDS011;7272;53.668;9.578;2023-04-28T11:22:30;5.00;;;4.47;;
14377;SDS011;7272;53.668;9.578;2023-04-28T11:28:55;5.18;;;4.72;;
14377;SDS011;7272;53.668;9.578;2023-04-28T11:31:57;5.23;;;4.20;;
14377;SDS011;7272;53.668;9.578;2023-04-28T11:34:59;4.60;;;4.00;;
14377;SDS011;7272;53.668;9.578;2023-04-28T11:38:02;5.20;;;4.30;;
14377;SDS011;7272;53.668;9.578;2023-04-28T11:41:03;4.30;;;4.00;;
14377;SDS011;7272;53.668;9.578;2023-04-28T11:44:08;4.87;;;4.23;;
14377;SDS011;7272;53.668;9.578;2023-04-28T11:47:11;5.50;;;4.53;;
14377;SDS011;7272;53.668;9.578;2023-04-28T11:50:12;5.53;;;4.43;;
14377;SDS011;7272;53.668;9.578;2023-04-28T11:53:15;5.03;;;4.30;;
14377;SDS011;7272;53.668;9.578;2023-04-28T11:56:17;5.37;;;4.47;;
14377;SDS011;7272;53.668;9.578;2023-04-28T11:59:22;5.33;;;4.40;;
14377;SDS011;7272;53.668;9.578;2023-04-28T12:02:24;6.73;;;4.90;;
14377;SDS011;7272;53.668;9.578;2023-04-28T12:05:27;5.37;;;4.57;;
14377;SDS011;7272;53.668;9.578;2023-04-28T12:08:30;6.10;;;4.40;;
14377;SDS011;7272;53.668;9.578;2023-04-28T12:11:31;5.43;;;4.33;;
14377;SDS011;7272;53.668;9.578;2023-04-28T12:14:33;6.03;;;4.60;;
14377;SDS011;7272;53.668;9.578;2023-04-28T12:17:53;4.90;;;4.17;;
14377;SDS011;7272;53.668;9.578;2023-04-28T12:20:55;4.50;;;4.10;;
14377;SDS011;7272;53.668;9.578;2023-04-28T12:23:57;6.40;;;4.70;;
14377;SDS011;7272;53.668;9.578;2023-04-28T12:27:15;4.67;;;4.13;;
14377;SDS011;7272;53.668;9.578;2023-04-28T12:30:23;5.00;;;4.30;;
14377;SDS011;7272;53.668;9.578;2023-04-28T12:33:26;5.47;;;4.63;;
14377;SDS011;7272;53.668;9.578;2023-04-28T12:36:28;6.00;;;4.83;;
14377;SDS011;7272;53.668;9.578;2023-04-28T12:39:31;4.90;;;4.40;;
14377;SDS011;7272;53.668;9.578;2023-04-28T12:42:32;5.50;;;4.03;;
14377;SDS011;7272;53.668;9.578;2023-04-28T12:45:34;5.22;;;4.72;;
14377;SDS011;7272;53.668;9.578;2023-04-28T12:48:35;6.40;;;4.50;;
14377;SDS011;7272;53.668;9.578;2023-04-28T12:51:37;5.10;;;4.00;;
14377;SDS011;7272;53.668;9.578;2023-04-28T12:54:39;4.97;;;4.10;;
14377;SDS011;7272;53.668;9.578;2023-04-28T12:57:46;5.90;;;4.23;;
14377;SDS011;7272;53.668;9.578;2023-04-28T13:00:47;6.00;;;4.07;;
14377;SDS011;7272;53.668;9.578;2023-04-28T13:03:48;5.03;;;4.50;;
14377;SDS011;7272;53.668;9.578;2023-04-28T13:06:51;8.20;;;4.80;;
14377;SDS011;7272;53.668;9.578;2023-04-28T13:09:54;6.03;;;4.47;;
14377;SDS011;7272;53.668;9.578;2023-04-28T13:12:56;5.43;;;3.90;;
14377;SDS011;7272;53.668;9.578;2023-04-28T13:15:57;5.20;;;4.63;;
14377;SDS011;7272;53.668;9.578;2023-04-28T13:18:58;4.57;;;4.17;;
14377;SDS011;7272;53.668;9.578;2023-04-28T13:22:00;5.57;;;4.78;;
14377;SDS011;7272;53.668;9.578;2023-04-28T13:25:05;4.70;;;3.63;;
14377;SDS011;7272;53.668;9.578;2023-04-28T13:28:08;5.17;;;4.67;;
14377;SDS011;7272;53.668;9.578;2023-04-28T13:31:09;5.93;;;4.30;;
14377;SDS011;7272;53.668;9.578;2023-04-28T13:34:10;4.60;;;4.20;;
14377;SDS011;7272;53.668;9.578;2023-04-28T13:37:15;4.83;;;4.23;;
14377;SDS011;7272;53.668;9.578;2023-04-28T13:40:17;5.27;;;3.90;;
14377;SDS011;7272;53.668;9.578;2023-04-28T13:43:18;4.97;;;4.47;;
14377;SDS011;7272;53.668;9.578;2023-04-28T13:46:19;5.57;;;4.30;;
14377;SDS011;7272;53.668;9.578;2023-04-28T13:49:21;4.90;;;4.50;;
14377;SDS011;7272;53.668;9.578;2023-04-28T13:52:23;5.32;;;4.82;;
14377;SDS011;7272;53.668;9.578;2023-04-28T13:55:25;6.30;;;5.00;;
14377;SDS011;7272;53.668;9.578;2023-04-28T13:58:27;5.30;;;4.57;;
14377;SDS011;7272;53.668;9.578;2023-04-28T14:01:29;5.17;;;4.47;;
14377;SDS011;7272;53.668;9.578;2023-04-28T14:04:30;5.10;;;4.23;;
14377;SDS011;7272;53.668;9.578;2023-04-28T14:07:32;5.20;;;4.70;;
14377;SDS011;7272;53.668;9.578;2023-04-28T14:10:33;4.33;;;4.00;;
14377;SDS011;7272;53.668;9.578;2023-04-28T14:13:35;6.30;;;4.57;;
14377;SDS011;7272;53.668;9.578;2023-04-28T14:16:36;7.13;;;4.60;;
14377;SDS011;7272;53.668;9.578;2023-04-28T14:19:37;4.50;;;4.10;;
14377;SDS011;7272;53.668;9.578;2023-04-28T14:22:39;7.23;;;4.47;;
14377;SDS011;7272;53.668;9.578;2023-04-28T14:25:41;5.83;;;5.30;;
14377;SDS011;7272;53.668;9.578;2023-04-28T14:28:42;5.93;;;5.40;;
14377;SDS011;7272;53.668;9.578;2023-04-28T14:31:43;6.22;;;5.50;;
14377;SDS011;7272;53.668;9.578;2023-04-28T14:34:45;6.87;;;5.20;;
14377;SDS011;7272;53.668;9.578;2023-04-28T14:37:47;5.60;;;5.10;;
14377;SDS011;7272;53.668;9.578;2023-04-28T14:40:49;6.67;;;5.20;;
14377;SDS011;7272;53.668;9.578;2023-04-28T14:43:51;5.83;;;4.73;;
14377;SDS011;7272;53.668;9.578;2023-04-28T14:46:52;6.23;;;5.37;;
14377;SDS011;7272;53.668;9.578;2023-04-28T14:49:53;6.27;;;5.33;;
14377;SDS011;7272;53.668;9.578;2023-04-28T14:52:55;5.50;;;5.00;;
14377;SDS011;7272;53.668;9.578;2023-04-28T14:55:59;6.13;;;5.63;;
14377;SDS011;7272;53.668;9.578;2023-04-28T14:59:01;5.40;;;4.90;;
14377;SDS011;7272;53.668;9.578;2023-04-28T15:02:02;6.07;;;5.53;;
14377;SDS011;7272;53.668;9.578;2023-04-28T15:05:04;6.53;;;5.93;;
14377;SDS011;7272;53.668;9.578;2023-04-28T15:08:06;7.00;;;6.30;;
14377;SDS011;7272;53.668;9.578;2023-04-28T15:11:08;5.77;;;5.27;;
14377;SDS011;7272;53.668;9.578;2023-04-28T15:14:10;6.30;;;5.70;;
14377;SDS011;7272;53.668;9.578;2023-04-28T15:17:11;5.90;;;5.20;;
14377;SDS011;7272;53.668;9.578;2023-04-28T15:20:12;6.23;;;5.60;;
14377;SDS011;7272;53.668;9.578;2023-04-28T15:23:14;6.93;;;5.27;;
14377;SDS011;7272;53.668;9.578;2023-04-28T15:26:16;5.60;;;5.17;;
14377;SDS011;7272;53.668;9.578;2023-04-28T15:29:17;7.13;;;5.83;;
14377;SDS011;7272;53.668;9.578;2023-04-28T15:32:18;6.67;;;6.10;;
14377;SDS011;7272;53.668;9.578;2023-04-28T15:35:19;6.07;;;5.50;;
14377;SDS011;7272;53.668;9.578;2023-04-28T15:38:21;6.73;;;6.03;;
14377;SDS011;7272;53.668;9.578;2023-04-28T15:41:23;7.37;;;6.67;;
14377;SDS011;7272;53.668;9.578;2023-04-28T15:44:24;7.43;;;6.82;;
14377;SDS011;7272;53.668;9.578;2023-04-28T15:47:25;7.13;;;6.40;;
14377;SDS011;7272;53.668;9.578;2023-04-28T15:50:28;7.33;;;6.50;;
14377;SDS011;7272;53.668;9.578;2023-04-28T15:53:30;6.73;;;6.23;;
14377;SDS011;7272;53.668;9.578;2023-04-28T15:56:32;6.67;;;6.07;;
14377;SDS011;7272;53.668;9.578;2023-04-28T15:59:33;7.50;;;6.80;;
14377;SDS011;7272;53.668;9.578;2023-04-28T16:02:35;7.40;;;6.63;;
14377;SDS011;7272;53.668;9.578;2023-04-28T16:05:37;8.40;;;6.23;;
14377;SDS011;7272;53.668;9.578;2023-04-28T16:08:39;6.57;;;5.70;;
14377;SDS011;7272;53.668;9.578;2023-04-28T16:11:41;6.37;;;5.77;;
14377;SDS011;7272;53.668;9.578;2023-04-28T16:14:42;6.77;;;5.33;;
14377;SDS011;7272;53.668;9.578;2023-04-28T16:17:43;6.40;;;5.53;;
14377;SDS011;7272;53.668;9.578;2023-04-28T16:20:45;6.57;;;5.90;;
14377;SDS011;7272;53.668;9.578;2023-04-28T16:23:46;6.00;;;5.40;;
14377;SDS011;7272;53.668;9.578;2023-04-28T16:26:50;5.70;;;5.03;;
14377;SDS011;7272;53.668;9.578;2023-04-28T16:29:52;6.07;;;5.57;;
14377;SDS011;7272;53.668;9.578;2023-04-28T16:32:53;6.67;;;6.10;;
14377;SDS011;7272;53.668;9.578;2023-04-28T16:35:57;6.77;;;6.03;;
14377;SDS011;7272;53.668;9.578;2023-04-28T16:38:59;6.10;;;5.57;;
14377;SDS011;7272;53.668;9.578;2023-04-28T16:42:01;7.00;;;5.70;;
14377;SDS011;7272;53.668;9.578;2023-04-28T16:45:03;6.50;;;5.80;;
14377;SDS011;7272;53.668;9.578;2023-04-28T16:48:07;6.80;;;6.10;;
14377;SDS011;7272;53.668;9.578;2023-04-28T16:51:08;6.73;;;6.13;;
14377;SDS011;7272;53.668;9.578;2023-04-28T16:54:10;8.13;;;7.47;;
14377;SDS011;7272;53.668;9.578;2023-04-28T16:57:12;8.48;;;7.78;;
14377;SDS011;7272;53.668;9.578;2023-04-28T17:00:13;6.70;;;6.10;;
14377;SDS011;7272;53.668;9.578;2023-04-28T17:03:15;6.73;;;6.13;;
14377;SDS011;7272;53.668;9.578;2023-04-28T17:06:16;7.07;;;6.40;;
14377;SDS011;7272;53.668;9.578;2023-04-28T17:09:18;7.40;;;6.70;;
14377;SDS011;7272;53.668;9.578;2023-04-28T17:12:20;8.03;;;7.33;;
14377;SDS011;7272;53.668;9.578;2023-04-28T17:15:22;7.80;;;7.00;;
14377;SDS011;7272;53.668;9.578;2023-04-28T17:18:23;7.17;;;6.47;;
14377;SDS011;7272;53.668;9.578;2023-04-28T17:21:25;7.00;;;6.50;;
14377;SDS011;7272;53.668;9.578;2023-04-28T17:24:28;8.93;;;8.03;;
14377;SDS011;7272;53.668;9.578;2023-04-28T17:27:30;7.53;;;6.83;;
14377;SDS011;7272;53.668;9.578;2023-04-28T17:30:31;7.60;;;6.80;;
14377;SDS011;7272;53.668;9.578;2023-04-28T17:33:34;9.88;;;9.18;;
14377;SDS011;7272;53.668;9.578;2023-04-28T17:36:36;8.83;;;8.13;;
14377;SDS011;7272;53.668;9.578;2023-04-28T17:39:37;8.30;;;7.60;;
14377;SDS011;7272;53.668;9.578;2023-04-28T17:42:39;9.20;;;8.17;;
14377;SDS011;7272;53.668;9.578;2023-04-28T17:45:41;9.60;;;8.70;;
14377;SDS011;7272;53.668;9.578;2023-04-28T17:48:42;10.10;;;9.17;;
14377;SDS011;7272;53.668;9.578;2023-04-28T17:51:43;10.73;;;9.53;;
14377;SDS011;7272;53.668;9.578;2023-04-28T17:54:45;9.73;;;8.73;;
14377;SDS011;7272;53.668;9.578;2023-04-28T17:57:47;9.87;;;8.97;;
14377;SDS011;7272;53.668;9.578;2023-04-28T18:00:48;9.30;;;8.50;;
14377;SDS011;7272;53.668;9.578;2023-04-28T18:03:49;9.50;;;8.53;;
14377;SDS011;7272;53.668;9.578;2023-04-28T18:06:50;12.35;;;11.35;;
14377;SDS011;7272;53.668;9.578;2023-04-28T18:09:52;12.50;;;11.40;;
14377;SDS011;7272;53.668;9.578;2023-04-28T18:12:56;11.10;;;10.10;;
14377;SDS011;7272;53.668;9.578;2023-04-28T18:15:58;10.33;;;9.33;;
14377;SDS011;7272;53.668;9.578;2023-04-28T18:19:00;12.27;;;11.07;;
14377;SDS011;7272;53.668;9.578;2023-04-28T18:22:01;9.70;;;8.67;;
14377;SDS011;7272;53.668;9.578;2023-04-28T18:25:03;11.23;;;10.13;;
14377;SDS011;7272;53.668;9.578;2023-04-28T18:28:07;11.57;;;10.43;;
14377;SDS011;7272;53.668;9.578;2023-04-28T18:31:09;11.37;;;10.30;;
14377;SDS011;7272;53.668;9.578;2023-04-28T18:34:11;12.60;;;11.43;;
14377;SDS011;7272;53.668;9.578;2023-04-28T18:37:12;12.60;;;11.40;;
14377;SDS011;7272;53.668;9.578;2023-04-28T18:40:13;12.47;;;11.43;;
14377;SDS011;7272;53.668;9.578;2023-04-28T18:43:15;15.55;;;14.20;;
14377;SDS011;7272;53.668;9.578;2023-04-28T18:46:16;14.20;;;12.82;;
14377;SDS011;7272;53.668;9.578;2023-04-28T18:49:18;13.27;;;11.60;;